Fordingbridge, United Kingdom
Current Conditions -  °F | °C
As of 10:20 PM on Sunday 23 Nov 2014 (Local Time) from EGHH Reporting Station
Light Fog Light Fog  
Wind Chill: 36°   Ceiling: Unl
Heat Index: 36°   Visibility: 1.8mi
Dew Point: 36°   Wind: 1mph
Humidity: 100%   Direction: 300°WNW
Pressure: 30.18"   Gusts: NA
Location:  50.93°N, 1.79°W
Report Text: EGHH 232220Z 30001KT 3000 MIFG NSC 02/02 Q1022
Loading
Personal Weather Stations






























Interactive Weather Map New forecast layout! Learn more

10-Day Weather Forecast

Advertisements
Track Severe Weather on mobile